Time;durP1;ratioP1;P1;durP2;ratioP2;P2;SDS_P1;SDS_P2;PMS_P1;PMS_P2;Temp;Humidity;BMP_temperature;BMP_pressure;BME280_temperature;BME280_humidity;BME280_pressure;Samples;Min_cycle;Max_cycle;Signal;HPM_P1;HPM_P2
2023/05/21 00:01:33;;;;;;;5.22;3.60;;;;;;;;;;5012050;28;20064;-61
2023/05/21 00:03:58;;;;;;;5.00;3.37;;;;;;;;;;5035536;28;20041;-61
2023/05/21 00:06:23;;;;;;;5.15;3.67;;;;;;;;;;5026247;28;20311;-60
2023/05/21 00:08:49;;;;;;;5.07;3.63;;;;;;;;;;5026937;28;20029;-61
2023/05/21 00:11:14;;;;;;;4.83;3.50;;;;;;;;;;5034912;28;20033;-62
2023/05/21 00:13:39;;;;;;;6.05;3.83;;;;;;;;;;5032342;28;20047;-61
2023/05/21 00:16:05;;;;;;;4.72;3.60;;;;;;;;;;5041324;28;20572;-60
2023/05/21 00:18:31;;;;;;;4.80;3.45;;;;;;;;;;5029822;28;20500;-62
2023/05/21 00:20:56;;;;;;;4.45;3.15;;;;;;;;;;5029324;28;20032;-63
2023/05/21 00:23:21;;;;;;;4.32;3.25;;;;;;;;;;5032022;28;20271;-61
2023/05/21 00:25:47;;;;;;;4.00;3.60;;;;;;;;;;5046198;28;20055;-64
2023/05/21 00:28:12;;;;;;;5.17;3.63;;;;;;;;;;5031188;28;20283;-62
2023/05/21 00:30:38;;;;;;;4.88;3.50;;;;;;;;;;5028444;28;20424;-63
2023/05/21 00:33:03;;;;;;;5.22;3.72;;;;;;;;;;5026660;28;20056;-62
2023/05/21 00:35:29;;;;;;;5.77;3.37;;;;;;;;;;5024784;28;20076;-61
2023/05/21 00:37:54;;;;;;;5.15;3.63;;;;;;;;;;5026275;28;20280;-62
2023/05/21 00:40:19;;;;;;;5.45;3.78;;;;;;;;;;5025312;28;20462;-62
2023/05/21 00:42:46;;;;;;;4.22;3.28;;;;;;;;;;5025449;28;20151;-61
2023/05/21 00:45:13;;;;;;;4.45;3.00;;;;;;;;;;5034262;28;20053;-62
2023/05/21 00:47:40;;;;;;;4.15;3.33;;;;;;;;;;5037906;28;20049;-63
2023/05/21 00:50:06;;;;;;;4.40;3.17;;;;;;;;;;5034097;28;20029;-62
2023/05/21 00:52:31;;;;;;;5.10;3.38;;;;;;;;;;5040419;28;20088;-64
2023/05/21 00:54:56;;;;;;;5.77;3.70;;;;;;;;;;5031402;28;20475;-60
2023/05/21 00:57:22;;;;;;;4.37;3.30;;;;;;;;;;5027330;28;20757;-61
2023/05/21 00:59:49;;;;;;;4.68;3.72;;;;;;;;;;5025224;28;20318;-61
2023/05/21 01:02:16;;;;;;;4.85;3.38;;;;;;;;;;5026891;28;20080;-60
2023/05/21 01:04:42;;;;;;;4.95;3.15;;;;;;;;;;5059300;28;20025;-62
2023/05/21 01:07:08;;;;;;;4.73;3.23;;;;;;;;;;5047897;28;20632;-63
2023/05/21 01:09:33;;;;;;;4.43;3.30;;;;;;;;;;5028422;28;21658;-63
2023/05/21 01:11:59;;;;;;;5.47;4.03;;;;;;;;;;5024830;28;20041;-62
2023/05/21 01:14:25;;;;;;;5.03;3.15;;;;;;;;;;5025092;28;20034;-61
2023/05/21 01:16:50;;;;;;;4.72;3.50;;;;;;;;;;5037018;28;20495;-61
2023/05/21 01:19:17;;;;;;;5.68;3.28;;;;;;;;;;5023500;28;20040;-64
2023/05/21 01:21:46;;;;;;;4.10;3.35;;;;;;;;;;5019089;28;20110;-63
2023/05/21 01:24:12;;;;;;;4.60;3.50;;;;;;;;;;5033855;28;20124;-61
2023/05/21 01:26:41;;;;;;;3.78;3.00;;;;;;;;;;5027795;28;20041;-62
2023/05/21 01:29:11;;;;;;;4.90;3.65;;;;;;;;;;5024738;28;20417;-60
2023/05/21 01:31:40;;;;;;;4.50;3.40;;;;;;;;;;5038013;28;20108;-61
2023/05/21 01:34:05;;;;;;;4.50;3.10;;;;;;;;;;5023479;28;20098;-62
2023/05/21 01:36:31;;;;;;;5.00;3.60;;;;;;;;;;5024989;28;20033;-62
2023/05/21 01:39:00;;;;;;;4.70;3.65;;;;;;;;;;5017757;28;20279;-62
2023/05/21 01:41:26;;;;;;;4.43;3.30;;;;;;;;;;5043367;28;20013;-64
2023/05/21 01:43:51;;;;;;;4.97;3.40;;;;;;;;;;5031250;28;20028;-62
2023/05/21 01:46:16;;;;;;;4.73;3.40;;;;;;;;;;5024545;28;20033;-62
2023/05/21 01:48:42;;;;;;;4.43;3.42;;;;;;;;;;5035249;28;20255;-64
2023/05/21 01:51:07;;;;;;;4.60;3.50;;;;;;;;;;5013443;28;20024;-63
2023/05/21 01:53:32;;;;;;;4.90;3.37;;;;;;;;;;5031241;28;20032;-62
2023/05/21 01:55:58;;;;;;;4.27;3.30;;;;;;;;;;5035283;28;20056;-63
2023/05/21 01:58:23;;;;;;;4.90;3.25;;;;;;;;;;5024915;28;20268;-62
2023/05/21 02:00:49;;;;;;;5.32;3.47;;;;;;;;;;5031422;28;20431;-60
2023/05/21 02:03:15;;;;;;;4.60;3.10;;;;;;;;;;5034936;28;20040;-62
2023/05/21 02:05:41;;;;;;;4.50;3.42;;;;;;;;;;5036904;28;20033;-62
2023/05/21 02:08:10;;;;;;;4.47;3.20;;;;;;;;;;5037988;28;20047;-63
2023/05/21 02:10:35;;;;;;;4.38;3.20;;;;;;;;;;5031919;28;20352;-64
2023/05/21 02:13:00;;;;;;;4.47;3.30;;;;;;;;;;5031998;28;20318;-62
2023/05/21 02:15:25;;;;;;;3.95;3.15;;;;;;;;;;5024322;28;20407;-60
2023/05/21 02:17:51;;;;;;;4.13;3.17;;;;;;;;;;5024815;28;20439;-62
2023/05/21 02:20:17;;;;;;;5.13;3.30;;;;;;;;;;5029729;28;20471;-65
2023/05/21 02:22:43;;;;;;;4.23;3.40;;;;;;;;;;5028506;28;20048;-63
2023/05/21 02:25:08;;;;;;;4.88;3.13;;;;;;;;;;5028451;28;20260;-62
2023/05/21 02:27:35;;;;;;;4.93;3.58;;;;;;;;;;5034128;28;20021;-61
2023/05/21 02:30:01;;;;;;;4.38;3.28;;;;;;;;;;5029328;28;20053;-62
2023/05/21 02:32:26;;;;;;;5.28;3.22;;;;;;;;;;5028032;28;20091;-62
2023/05/21 02:34:51;;;;;;;4.45;3.20;;;;;;;;;;5028269;28;20047;-61
2023/05/21 02:37:17;;;;;;;6.10;3.78;;;;;;;;;;5028443;28;20017;-62
2023/05/21 02:39:42;;;;;;;4.25;3.25;;;;;;;;;;5036075;28;20048;-62
2023/05/21 02:42:08;;;;;;;4.73;3.17;;;;;;;;;;5027531;28;20091;-64
2023/05/21 02:44:33;;;;;;;4.77;3.43;;;;;;;;;;5035303;28;20045;-61
2023/05/21 02:46:58;;;;;;;4.10;3.17;;;;;;;;;;5027893;28;20076;-62
2023/05/21 02:49:23;;;;;;;4.47;3.30;;;;;;;;;;5028139;28;20880;-60
2023/05/21 02:51:48;;;;;;;5.00;3.20;;;;;;;;;;5027865;28;20526;-62
2023/05/21 02:54:14;;;;;;;4.67;3.50;;;;;;;;;;5028061;28;20112;-63
2023/05/21 02:56:39;;;;;;;4.85;3.45;;;;;;;;;;5030906;28;20059;-63
2023/05/21 02:59:05;;;;;;;4.72;3.20;;;;;;;;;;5030623;28;20121;-62
2023/05/21 03:01:30;;;;;;;4.85;3.45;;;;;;;;;;5032818;28;20033;-62
2023/05/21 03:03:55;;;;;;;5.47;3.43;;;;;;;;;;5029746;28;20037;-62
2023/05/21 03:06:21;;;;;;;4.07;2.93;;;;;;;;;;5037228;28;20056;-62
2023/05/21 03:08:46;;;;;;;4.82;3.33;;;;;;;;;;5029672;28;20030;-65
2023/05/21 03:11:11;;;;;;;5.37;4.07;;;;;;;;;;5034175;28;20033;-60
2023/05/21 03:13:36;;;;;;;6.03;3.30;;;;;;;;;;5032203;28;20330;-61
2023/05/21 03:16:02;;;;;;;4.57;3.57;;;;;;;;;;5027630;28;20295;-64
2023/05/21 03:18:27;;;;;;;4.75;3.35;;;;;;;;;;5027923;28;20037;-63
2023/05/21 03:20:53;;;;;;;4.53;3.42;;;;;;;;;;5034639;28;20048;-61
2023/05/21 03:23:18;;;;;;;4.87;3.30;;;;;;;;;;5045246;28;20348;-62
2023/05/21 03:25:44;;;;;;;4.53;3.30;;;;;;;;;;5047280;28;20394;-62
2023/05/21 03:28:10;;;;;;;4.13;3.20;;;;;;;;;;5043229;28;20686;-62
2023/05/21 03:30:37;;;;;;;4.07;3.15;;;;;;;;;;5028973;28;20195;-63
2023/05/21 03:33:03;;;;;;;4.15;3.33;;;;;;;;;;5028287;28;20455;-61
2023/05/21 03:35:29;;;;;;;4.43;3.30;;;;;;;;;;5028881;28;20033;-62
2023/05/21 03:37:54;;;;;;;4.50;3.10;;;;;;;;;;5027487;28;20041;-62
2023/05/21 03:40:20;;;;;;;4.22;3.28;;;;;;;;;;5026561;28;20818;-62
2023/05/21 03:42:45;;;;;;;5.30;3.60;;;;;;;;;;5026339;28;20042;-63
2023/05/21 03:45:11;;;;;;;4.95;3.15;;;;;;;;;;5033432;28;20464;-60
2023/05/21 03:47:36;;;;;;;11.05;3.70;;;;;;;;;;5045104;28;20545;-61
2023/05/21 03:50:01;;;;;;;4.27;3.13;;;;;;;;;;5045723;28;20097;-61
2023/05/21 03:52:27;;;;;;;5.63;3.13;;;;;;;;;;5040793;28;20262;-63
2023/05/21 03:54:52;;;;;;;4.53;3.43;;;;;;;;;;5058863;28;20028;-63
2023/05/21 03:57:17;;;;;;;4.43;3.33;;;;;;;;;;5061650;28;20041;-66
2023/05/21 03:59:42;;;;;;;4.45;3.30;;;;;;;;;;5058914;28;20047;-61
2023/05/21 04:02:08;;;;;;;4.80;3.43;;;;;;;;;;5057366;28;20587;-61
2023/05/21 04:04:33;;;;;;;4.90;3.37;;;;;;;;;;5064980;28;20716;-64
2023/05/21 04:06:58;;;;;;;6.07;3.57;;;;;;;;;;5050174;28;20302;-66
2023/05/21 04:09:23;;;;;;;4.55;3.38;;;;;;;;;;5046608;28;20279;-62
2023/05/21 04:11:49;;;;;;;4.28;3.10;;;;;;;;;;5054623;28;20549;-61
2023/05/21 04:14:14;;;;;;;4.40;3.25;;;;;;;;;;5046777;28;20510;-62
2023/05/21 04:16:42;;;;;;;4.15;3.08;;;;;;;;;;5048296;28;20071;-62
2023/05/21 04:19:08;;;;;;;3.78;3.10;;;;;;;;;;5059611;28;20142;-63
2023/05/21 04:21:33;;;;;;;4.18;3.22;;;;;;;;;;5051593;28;20064;-63
2023/05/21 04:23:59;;;;;;;3.63;3.20;;;;;;;;;;5028154;28;20033;-64
2023/05/21 04:26:24;;;;;;;4.78;3.58;;;;;;;;;;5038683;28;20303;-62
2023/05/21 04:28:50;;;;;;;4.30;3.20;;;;;;;;;;5045166;28;20103;-62
2023/05/21 04:31:15;;;;;;;4.13;3.30;;;;;;;;;;5061585;28;20275;-63
2023/05/21 04:33:41;;;;;;;6.03;3.80;;;;;;;;;;5035229;28;20522;-64
2023/05/21 04:36:08;;;;;;;8.40;3.13;;;;;;;;;;5040682;28;20426;-64
2023/05/21 04:38:35;;;;;;;4.50;3.28;;;;;;;;;;5063490;28;20052;-63
2023/05/21 04:41:03;;;;;;;5.60;2.97;;;;;;;;;;5056805;28;20116;-60
2023/05/21 04:43:28;;;;;;;4.45;3.20;;;;;;;;;;5063522;28;20182;-63
2023/05/21 04:45:53;;;;;;;3.83;2.88;;;;;;;;;;5051669;28;20139;-62
2023/05/21 04:48:19;;;;;;;3.47;3.10;;;;;;;;;;5049925;28;20069;-62
2023/05/21 04:50:44;;;;;;;4.55;3.10;;;;;;;;;;5046675;28;20290;-65
2023/05/21 04:53:10;;;;;;;3.72;3.08;;;;;;;;;;5059096;28;20037;-64
2023/05/21 04:55:38;;;;;;;4.07;3.10;;;;;;;;;;5053373;28;20036;-63
2023/05/21 04:58:09;;;;;;;4.25;3.22;;;;;;;;;;5032537;28;20036;-63
2023/05/21 05:00:36;;;;;;;4.68;3.40;;;;;;;;;;5053489;28;20052;-61
2023/05/21 05:03:01;;;;;;;4.72;3.28;;;;;;;;;;5050446;28;20055;-63
2023/05/21 05:05:26;;;;;;;4.60;2.90;;;;;;;;;;5054707;28;20112;-61
2023/05/21 05:07:52;;;;;;;3.50;3.00;;;;;;;;;;5046456;28;20572;-63
2023/05/21 05:10:17;;;;;;;4.33;3.30;;;;;;;;;;5050972;28;20057;-62
2023/05/21 05:12:42;;;;;;;4.07;3.20;;;;;;;;;;5049197;28;20150;-61
2023/05/21 05:15:07;;;;;;;4.53;3.53;;;;;;;;;;5025480;28;20128;-62
2023/05/21 05:17:33;;;;;;;4.10;2.95;;;;;;;;;;5037957;28;20120;-62
2023/05/21 05:19:58;;;;;;;4.00;3.10;;;;;;;;;;5050577;28;20044;-64
2023/05/21 05:22:24;;;;;;;4.43;2.95;;;;;;;;;;5050451;28;20431;-62
2023/05/21 05:24:49;;;;;;;5.72;2.90;;;;;;;;;;5039749;28;20155;-62
2023/05/21 05:27:14;;;;;;;3.87;3.00;;;;;;;;;;5048203;28;20088;-63
2023/05/21 05:29:39;;;;;;;4.40;3.40;;;;;;;;;;5054709;28;20349;-66
2023/05/21 05:32:05;;;;;;;3.67;2.90;;;;;;;;;;5048645;28;20029;-62
2023/05/21 05:34:31;;;;;;;4.78;3.17;;;;;;;;;;5047738;28;20033;-61
2023/05/21 05:36:56;;;;;;;4.90;3.10;;;;;;;;;;5036374;28;20125;-61
2023/05/21 05:39:22;;;;;;;4.60;2.92;;;;;;;;;;5048607;28;20112;-61
2023/05/21 05:41:47;;;;;;;4.73;3.40;;;;;;;;;;5055572;28;20429;-64
2023/05/21 05:44:12;;;;;;;3.90;3.10;;;;;;;;;;5058142;28;20080;-62
2023/05/21 05:46:37;;;;;;;3.83;3.00;;;;;;;;;;5059059;28;20352;-61
2023/05/21 05:49:02;;;;;;;3.70;2.90;;;;;;;;;;5059007;28;20342;-62
2023/05/21 05:51:29;;;;;;;4.10;3.23;;;;;;;;;;5048835;28;20140;-60
2023/05/21 05:53:54;;;;;;;3.88;3.00;;;;;;;;;;5048515;28;20140;-61
2023/05/21 05:56:20;;;;;;;4.33;3.33;;;;;;;;;;5051580;28;20105;-60
2023/05/21 05:58:45;;;;;;;5.80;3.33;;;;;;;;;;5056254;28;20291;-60
2023/05/21 06:01:10;;;;;;;6.13;3.40;;;;;;;;;;5058228;28;20560;-60
2023/05/21 06:03:35;;;;;;;4.93;3.17;;;;;;;;;;5057848;28;20704;-59
2023/05/21 06:06:01;;;;;;;4.27;2.80;;;;;;;;;;5055993;28;20062;-60
2023/05/21 06:08:26;;;;;;;5.70;3.33;;;;;;;;;;5055382;28;20040;-61
2023/05/21 06:10:51;;;;;;;5.67;3.17;;;;;;;;;;5051393;28;20075;-60
2023/05/21 06:13:16;;;;;;;5.20;2.90;;;;;;;;;;5065831;28;20314;-62
2023/05/21 06:15:42;;;;;;;3.83;2.97;;;;;;;;;;5063647;28;20665;-61
2023/05/21 06:18:07;;;;;;;5.38;3.10;;;;;;;;;;5038951;28;20036;-61
2023/05/21 06:20:32;;;;;;;5.30;3.10;;;;;;;;;;5069016;28;20086;-61
2023/05/21 06:22:58;;;;;;;3.47;2.92;;;;;;;;;;5060097;28;20283;-58
2023/05/21 06:25:24;;;;;;;5.47;3.20;;;;;;;;;;5051292;28;20025;-61
2023/05/21 06:27:49;;;;;;;5.22;3.67;;;;;;;;;;5048460;28;20073;-61
2023/05/21 06:30:15;;;;;;;6.07;2.97;;;;;;;;;;5056411;28;20045;-60
2023/05/21 06:32:40;;;;;;;4.10;3.00;;;;;;;;;;5059153;28;20498;-60
2023/05/21 06:35:05;;;;;;;3.60;2.87;;;;;;;;;;5056749;28;20506;-62
2023/05/21 06:37:30;;;;;;;5.63;2.85;;;;;;;;;;5062675;28;20439;-61
2023/05/21 06:39:56;;;;;;;4.50;3.20;;;;;;;;;;5064459;28;20040;-63
2023/05/21 06:42:21;;;;;;;4.33;3.00;;;;;;;;;;5060302;28;20048;-62
2023/05/21 06:44:46;;;;;;;3.73;2.70;;;;;;;;;;5050504;28;20028;-63
2023/05/21 06:47:11;;;;;;;4.50;2.80;;;;;;;;;;5047662;28;20842;-61
2023/05/21 06:49:37;;;;;;;5.15;3.00;;;;;;;;;;5023864;28;20025;-63
2023/05/21 06:52:02;;;;;;;3.97;3.17;;;;;;;;;;5046568;28;20036;-61
2023/05/21 06:54:27;;;;;;;3.97;2.90;;;;;;;;;;5046353;28;20059;-62
2023/05/21 06:56:52;;;;;;;4.03;3.23;;;;;;;;;;5047662;28;20051;-62
2023/05/21 06:59:18;;;;;;;4.63;2.97;;;;;;;;;;5047659;28;20287;-61
2023/05/21 07:01:43;;;;;;;4.50;3.40;;;;;;;;;;5046288;28;20121;-61
2023/05/21 07:04:08;;;;;;;3.70;2.97;;;;;;;;;;5047405;28;20287;-63
2023/05/21 07:06:34;;;;;;;3.67;3.00;;;;;;;;;;5047116;28;20303;-62
2023/05/21 07:09:00;;;;;;;7.00;3.08;;;;;;;;;;5045835;28;20033;-60
2023/05/21 07:11:27;;;;;;;6.05;3.10;;;;;;;;;;5030981;28;20425;-66
2023/05/21 07:13:53;;;;;;;4.03;3.00;;;;;;;;;;5047109;28;20295;-64
2023/05/21 07:16:18;;;;;;;4.45;3.30;;;;;;;;;;5042827;28;20427;-63
2023/05/21 07:18:44;;;;;;;4.55;3.00;;;;;;;;;;5049834;28;20703;-61
2023/05/21 07:21:09;;;;;;;5.10;3.43;;;;;;;;;;5051811;28;20090;-62
2023/05/21 07:23:34;;;;;;;3.85;3.10;;;;;;;;;;5028913;28;20318;-62
2023/05/21 07:26:00;;;;;;;5.68;3.47;;;;;;;;;;5047439;28;20129;-59
2023/05/21 07:28:25;;;;;;;5.13;3.15;;;;;;;;;;5048565;28;20265;-62
2023/05/21 07:30:50;;;;;;;4.03;2.97;;;;;;;;;;5049652;28;20120;-63
2023/05/21 07:33:16;;;;;;;4.85;3.03;;;;;;;;;;5047020;28;20025;-62
2023/05/21 07:35:41;;;;;;;4.72;2.95;;;;;;;;;;5045255;28;20022;-63
2023/05/21 07:38:06;;;;;;;5.45;3.08;;;;;;;;;;5049665;28;20025;-60
2023/05/21 07:40:31;;;;;;;4.40;3.27;;;;;;;;;;5039654;28;20033;-61
2023/05/21 07:42:57;;;;;;;5.40;3.23;;;;;;;;;;5047086;28;20689;-64
2023/05/21 07:45:22;;;;;;;4.10;3.03;;;;;;;;;;5053447;28;20287;-61
2023/05/21 07:47:47;;;;;;;5.23;3.30;;;;;;;;;;5050503;28;20061;-62
2023/05/21 07:50:13;;;;;;;4.37;3.33;;;;;;;;;;5052840;28;20393;-68
2023/05/21 07:52:38;;;;;;;4.95;3.28;;;;;;;;;;5039805;28;20288;-66
2023/05/21 07:55:03;;;;;;;4.30;3.40;;;;;;;;;;5034270;28;20117;-64
2023/05/21 07:57:29;;;;;;;5.65;3.72;;;;;;;;;;5034716;28;20037;-61
2023/05/21 07:59:55;;;;;;;4.95;3.58;;;;;;;;;;5037784;28;20048;-65
2023/05/21 08:02:20;;;;;;;4.10;3.20;;;;;;;;;;5048303;28;20048;-65
2023/05/21 08:04:46;;;;;;;9.40;3.70;;;;;;;;;;5040942;28;20037;-67
2023/05/21 08:07:12;;;;;;;12.80;4.13;;;;;;;;;;5029710;28;20044;-63
2023/05/21 08:09:37;;;;;;;9.02;3.55;;;;;;;;;;5038650;28;20021;-62
2023/05/21 08:12:03;;;;;;;7.83;3.53;;;;;;;;;;5028386;28;20577;-65
2023/05/21 08:14:28;;;;;;;7.50;3.92;;;;;;;;;;5026576;28;20511;-61
2023/05/21 08:16:53;;;;;;;7.87;3.80;;;;;;;;;;5028374;28;20107;-61
2023/05/21 08:19:18;;;;;;;8.27;3.63;;;;;;;;;;5029371;28;20320;-62
2023/05/21 08:21:44;;;;;;;8.00;3.80;;;;;;;;;;5030168;28;20056;-60
2023/05/21 08:24:09;;;;;;;9.90;3.60;;;;;;;;;;5035246;28;20288;-61
2023/05/21 08:26:35;;;;;;;10.20;3.45;;;;;;;;;;5031462;28;20049;-60
2023/05/21 08:29:00;;;;;;;7.00;3.63;;;;;;;;;;5025866;28;20219;-60
2023/05/21 08:31:26;;;;;;;7.57;3.40;;;;;;;;;;5026369;28;20038;-60
2023/05/21 08:33:51;;;;;;;10.80;3.45;;;;;;;;;;5026281;28;20276;-61
2023/05/21 08:36:16;;;;;;;5.75;3.28;;;;;;;;;;5029846;28;20030;-60
2023/05/21 08:38:42;;;;;;;11.30;3.38;;;;;;;;;;5032044;28;20030;-60
2023/05/21 08:41:07;;;;;;;5.27;3.20;;;;;;;;;;5029436;28;20041;-60
2023/05/21 08:43:32;;;;;;;4.80;3.50;;;;;;;;;;5030774;28;20918;-61
2023/05/21 08:45:58;;;;;;;5.43;3.33;;;;;;;;;;5029279;28;20041;-59
2023/05/21 08:48:23;;;;;;;8.07;2.90;;;;;;;;;;5026829;28;20041;-60
2023/05/21 08:50:51;;;;;;;5.00;3.15;;;;;;;;;;5027678;28;20781;-61
2023/05/21 08:53:16;;;;;;;5.90;3.17;;;;;;;;;;5031295;28;20074;-62
2023/05/21 08:55:42;;;;;;;5.13;3.00;;;;;;;;;;5026697;28;20033;-61
2023/05/21 08:58:07;;;;;;;6.38;3.10;;;;;;;;;;5026627;28;20062;-60
2023/05/21 09:00:33;;;;;;;6.73;3.10;;;;;;;;;;5025652;28;20037;-61
2023/05/21 09:02:59;;;;;;;5.47;3.13;;;;;;;;;;5029323;28;20040;-62
2023/05/21 09:05:25;;;;;;;4.63;3.08;;;;;;;;;;5035317;28;20490;-62
2023/05/21 09:07:56;;;;;;;6.47;2.92;;;;;;;;;;5025451;28;20140;-64
2023/05/21 09:10:22;;;;;;;5.82;3.17;;;;;;;;;;5027757;28;20491;-62
2023/05/21 09:12:47;;;;;;;6.47;3.00;;;;;;;;;;5027346;28;20045;-63
2023/05/21 09:15:13;;;;;;;6.00;2.80;;;;;;;;;;5029480;28;20030;-59
2023/05/21 09:17:38;;;;;;;6.23;2.90;;;;;;;;;;5029306;28;20908;-63
2023/05/21 09:20:14;;;;;;;6.18;3.10;;;;;;;;;;5035858;28;20526;-63
2023/05/21 09:22:47;;;;;;;10.25;3.08;;;;;;;;;;5031917;28;20044;-66
2023/05/21 09:25:13;;;;;;;5.70;2.90;;;;;;;;;;5032100;28;20038;-60
2023/05/21 09:27:38;;;;;;;5.53;2.90;;;;;;;;;;5026393;28;20056;-62
2023/05/21 09:30:05;;;;;;;5.30;3.13;;;;;;;;;;5039025;28;20152;-59
2023/05/21 09:32:30;;;;;;;5.53;3.70;;;;;;;;;;5026055;28;20992;-60
2023/05/21 09:34:55;;;;;;;6.40;3.30;;;;;;;;;;5025061;28;20052;-62
2023/05/21 09:37:21;;;;;;;5.83;3.00;;;;;;;;;;5025121;28;20328;-62
2023/05/21 09:39:46;;;;;;;6.72;3.33;;;;;;;;;;5026195;28;20820;-60
2023/05/21 09:42:12;;;;;;;6.60;2.95;;;;;;;;;;5034104;28;20119;-60
2023/05/21 09:44:37;;;;;;;4.43;2.67;;;;;;;;;;5035694;28;20147;-61
2023/05/21 09:47:02;;;;;;;3.65;2.75;;;;;;;;;;5025004;28;20056;-66
2023/05/21 09:49:28;;;;;;;4.43;3.20;;;;;;;;;;5027371;28;20090;-59
2023/05/21 09:51:56;;;;;;;5.10;2.60;;;;;;;;;;5031435;28;20563;-61
2023/05/21 09:54:23;;;;;;;6.93;2.90;;;;;;;;;;5031020;28;20144;-60
2023/05/21 09:56:48;;;;;;;5.55;2.53;;;;;;;;;;5047159;28;20021;-60
2023/05/21 09:59:14;;;;;;;6.97;2.87;;;;;;;;;;5026393;28;20028;-60
2023/05/21 10:01:39;;;;;;;5.32;2.40;;;;;;;;;;5047143;28;20358;-60
2023/05/21 10:04:05;;;;;;;5.73;2.50;;;;;;;;;;5027444;28;20071;-61
2023/05/21 10:06:32;;;;;;;4.55;2.78;;;;;;;;;;5027156;28;20327;-63
2023/05/21 10:09:01;;;;;;;6.03;2.80;;;;;;;;;;5045327;28;20021;-61
2023/05/21 10:11:28;;;;;;;4.63;2.70;;;;;;;;;;5043609;28;20021;-60
2023/05/21 10:14:00;;;;;;;5.30;2.60;;;;;;;;;;5031674;28;20043;-59
2023/05/21 10:16:25;;;;;;;6.20;2.65;;;;;;;;;;5047089;28;20131;-60
2023/05/21 10:18:52;;;;;;;5.97;2.97;;;;;;;;;;5051989;28;20119;-61
2023/05/21 10:21:18;;;;;;;4.75;2.83;;;;;;;;;;5016375;28;20370;-59
2023/05/21 10:23:43;;;;;;;6.03;2.57;;;;;;;;;;5047926;28;20151;-60
2023/05/21 10:26:08;;;;;;;4.37;2.60;;;;;;;;;;5030976;28;20818;-60
2023/05/21 10:28:33;;;;;;;5.47;3.07;;;;;;;;;;5027438;28;20342;-62
2023/05/21 10:30:59;;;;;;;6.25;3.05;;;;;;;;;;5043772;28;20045;-63
2023/05/21 10:33:24;;;;;;;6.00;2.83;;;;;;;;;;5038888;28;20029;-62
2023/05/21 10:35:50;;;;;;;5.05;2.83;;;;;;;;;;5021411;28;20297;-60
2023/05/21 10:38:15;;;;;;;6.00;3.08;;;;;;;;;;5034719;28;20032;-60
2023/05/21 10:40:40;;;;;;;7.03;2.80;;;;;;;;;;5046140;28;20495;-61
2023/05/21 10:43:25;;;;;;;5.80;2.67;;;;;;;;;;5047393;28;20493;-61
2023/05/21 10:45:50;;;;;;;8.30;3.00;;;;;;;;;;5053151;28;20402;-61
2023/05/21 10:48:18;;;;;;;6.65;3.17;;;;;;;;;;5033062;28;20056;-61
2023/05/21 10:50:49;;;;;;;6.03;2.92;;;;;;;;;;5033749;28;20037;-60
2023/05/21 10:53:24;;;;;;;4.53;2.80;;;;;;;;;;5052362;28;20063;-60
2023/05/21 10:55:57;;;;;;;7.78;3.10;;;;;;;;;;5052165;28;20029;-62
2023/05/21 10:58:26;;;;;;;4.45;2.58;;;;;;;;;;5048977;28;20088;-64
2023/05/21 11:00:52;;;;;;;5.40;2.75;;;;;;;;;;5050110;28;20095;-61
2023/05/21 11:03:17;;;;;;;4.60;2.90;;;;;;;;;;5029783;28;20273;-61
2023/05/21 11:05:53;;;;;;;5.10;2.83;;;;;;;;;;5013018;28;20093;-61
2023/05/21 11:08:25;;;;;;;5.55;3.00;;;;;;;;;;5028573;28;20907;-61
2023/05/21 11:10:51;;;;;;;4.97;3.03;;;;;;;;;;5040481;28;20060;-61
2023/05/21 11:13:18;;;;;;;5.50;3.25;;;;;;;;;;5039999;28;20041;-60
2023/05/21 11:16:00;;;;;;;4.65;2.88;;;;;;;;;;5056161;28;20701;-61
2023/05/21 11:18:34;;;;;;;6.32;3.30;;;;;;;;;;5054138;28;20037;-66
2023/05/21 11:21:02;;;;;;;7.07;3.78;;;;;;;;;;5053685;28;20048;-62
2023/05/21 11:23:47;;;;;;;5.40;3.30;;;;;;;;;;5051816;28;20036;-62
2023/05/21 11:26:14;;;;;;;5.35;3.00;;;;;;;;;;5050971;28;20052;-60
2023/05/21 11:28:39;;;;;;;5.70;3.30;;;;;;;;;;5031955;28;20529;-61
2023/05/21 11:31:24;;;;;;;6.28;3.03;;;;;;;;;;5056159;28;20016;-62
2023/05/21 11:34:07;;;;;;;5.65;3.35;;;;;;;;;;5057709;28;20047;-62
2023/05/21 11:36:33;;;;;;;8.15;3.42;;;;;;;;;;5056709;28;20506;-63
2023/05/21 11:39:28;;;;;;;5.88;3.33;;;;;;;;;;5054244;28;20036;-63
2023/05/21 11:41:57;;;;;;;5.40;3.35;;;;;;;;;;5034296;28;20049;-64
2023/05/21 11:44:40;;;;;;;5.15;3.20;;;;;;;;;;5053334;28;20036;-64
2023/05/21 11:47:06;;;;;;;6.47;3.75;;;;;;;;;;5055030;28;20057;-63
2023/05/21 11:49:31;;;;;;;5.32;3.00;;;;;;;;;;5033977;28;20570;-57
2023/05/21 11:51:57;;;;;;;4.50;2.90;;;;;;;;;;5051372;28;20056;-57
2023/05/21 11:54:22;;;;;;;5.70;3.55;;;;;;;;;;5035324;28;20090;-57
2023/05/21 11:56:48;;;;;;;5.72;3.00;;;;;;;;;;5053346;28;20021;-56
2023/05/21 11:59:14;;;;;;;6.00;3.50;;;;;;;;;;5050599;28;20049;-58
2023/05/21 12:01:40;;;;;;;5.57;3.65;;;;;;;;;;5039848;28;20040;-58
2023/05/21 12:04:06;;;;;;;6.60;3.53;;;;;;;;;;5039047;28;20036;-58
2023/05/21 12:06:33;;;;;;;5.95;3.63;;;;;;;;;;5039233;28;20037;-59
2023/05/21 12:08:58;;;;;;;5.82;3.47;;;;;;;;;;5051153;28;20518;-58
2023/05/21 12:11:23;;;;;;;8.10;3.72;;;;;;;;;;5053103;28;20124;-61
2023/05/21 12:13:49;;;;;;;6.43;3.35;;;;;;;;;;5034465;28;20041;-67
2023/05/21 12:16:15;;;;;;;7.88;3.75;;;;;;;;;;5047235;28;21144;-71
2023/05/21 12:18:40;;;;;;;8.77;3.63;;;;;;;;;;5052965;28;20258;-63
2023/05/21 12:21:05;;;;;;;6.93;3.45;;;;;;;;;;5037415;28;20040;-70
2023/05/21 12:23:31;;;;;;;6.20;3.40;;;;;;;;;;5055282;28;20032;-70
2023/05/21 12:25:56;;;;;;;6.95;3.67;;;;;;;;;;5036801;28;20048;-66
2023/05/21 12:28:21;;;;;;;7.17;3.60;;;;;;;;;;5030850;28;20052;-68
2023/05/21 12:30:47;;;;;;;7.47;3.75;;;;;;;;;;5032145;28;20886;-66
2023/05/21 12:33:12;;;;;;;6.37;3.47;;;;;;;;;;5033625;28;20044;-66
2023/05/21 12:35:38;;;;;;;5.78;3.75;;;;;;;;;;5035536;28;20279;-68
2023/05/21 12:38:03;;;;;;;6.10;3.40;;;;;;;;;;5029421;28;20495;-64
2023/05/21 12:40:35;;;;;;;5.47;3.58;;;;;;;;;;5032094;28;20503;-68
2023/05/21 12:43:01;;;;;;;4.72;3.65;;;;;;;;;;5033638;28;20041;-71
2023/05/21 12:45:26;;;;;;;6.90;3.63;;;;;;;;;;5032838;28;20033;-72
2023/05/21 12:47:54;;;;;;;6.70;3.80;;;;;;;;;;5032907;28;20033;-66
2023/05/21 12:50:20;;;;;;;6.50;3.47;;;;;;;;;;5016051;28;20625;-67
2023/05/21 12:52:45;;;;;;;7.32;3.45;;;;;;;;;;5032692;28;20034;-67
2023/05/21 12:55:12;;;;;;;5.87;3.37;;;;;;;;;;5034790;28;20029;-67
2023/05/21 12:57:37;;;;;;;5.43;3.25;;;;;;;;;;5032622;28;20294;-74
2023/05/21 13:00:05;;;;;;;4.68;3.17;;;;;;;;;;5034647;28;20999;-65
2023/05/21 13:02:31;;;;;;;8.00;3.50;;;;;;;;;;5033125;28;20038;-65
2023/05/21 13:04:57;;;;;;;5.95;3.17;;;;;;;;;;5035594;28;20060;-63
2023/05/21 13:07:22;;;;;;;6.10;3.42;;;;;;;;;;5039159;28;20080;-67
2023/05/21 13:09:48;;;;;;;7.63;3.70;;;;;;;;;;5040662;28;20402;-67
2023/05/21 13:12:14;;;;;;;5.72;3.40;;;;;;;;;;5041633;28;20037;-66
2023/05/21 13:14:39;;;;;;;8.07;3.80;;;;;;;;;;5039510;28;20052;-62
2023/05/21 13:17:04;;;;;;;7.57;3.80;;;;;;;;;;5035233;28;20132;-62
2023/05/21 13:19:30;;;;;;;6.25;3.75;;;;;;;;;;5018652;28;20029;-67
2023/05/21 13:21:55;;;;;;;6.70;3.53;;;;;;;;;;5034717;28;20052;-64
2023/05/21 13:24:20;;;;;;;6.67;3.67;;;;;;;;;;5037467;28;20456;-68
2023/05/21 13:26:45;;;;;;;8.32;3.78;;;;;;;;;;5039436;28;20622;-70
2023/05/21 13:29:13;;;;;;;7.68;4.60;;;;;;;;;;5035793;28;20049;-72
2023/05/21 13:31:39;;;;;;;7.30;4.20;;;;;;;;;;5038791;28;20449;-71
2023/05/21 13:34:06;;;;;;;6.38;3.63;;;;;;;;;;5039934;28;20123;-74
2023/05/21 13:36:31;;;;;;;7.30;4.03;;;;;;;;;;5044634;28;20045;-70
2023/05/21 13:38:57;;;;;;;6.80;3.95;;;;;;;;;;5039141;28;20032;-75
2023/05/21 13:41:22;;;;;;;8.43;4.07;;;;;;;;;;5036412;28;20048;-66
2023/05/21 13:43:47;;;;;;;6.57;3.83;;;;;;;;;;5032810;28;20383;-73
2023/05/21 13:46:12;;;;;;;10.53;3.70;;;;;;;;;;5040987;28;20307;-71
2023/05/21 13:48:38;;;;;;;8.17;3.90;;;;;;;;;;5039458;28;20144;-68
2023/05/21 13:51:04;;;;;;;7.63;4.00;;;;;;;;;;5039797;28;20042;-72
2023/05/21 13:53:29;;;;;;;8.63;3.88;;;;;;;;;;5033057;28;20038;-67
2023/05/21 13:55:54;;;;;;;7.50;3.83;;;;;;;;;;5037118;28;20419;-65
2023/05/21 13:58:20;;;;;;;6.25;4.03;;;;;;;;;;5034491;28;20275;-68
2023/05/21 14:00:45;;;;;;;9.03;4.00;;;;;;;;;;5028249;28;20033;-68
2023/05/21 14:03:10;;;;;;;6.90;3.73;;;;;;;;;;5025474;28;20276;-69
2023/05/21 14:05:35;;;;;;;7.17;3.63;;;;;;;;;;5032643;28;20379;-69
2023/05/21 14:08:01;;;;;;;6.00;4.03;;;;;;;;;;5026125;28;20124;-72
2023/05/21 14:10:26;;;;;;;7.50;3.92;;;;;;;;;;5028744;28;20440;-69
2023/05/21 14:12:51;;;;;;;7.13;3.70;;;;;;;;;;5029569;28;20041;-70
2023/05/21 14:15:17;;;;;;;7.30;3.70;;;;;;;;;;5037049;28;20120;-73
2023/05/21 14:17:42;;;;;;;5.32;3.50;;;;;;;;;;5034139;28;20299;-71
2023/05/21 14:20:08;;;;;;;8.07;3.90;;;;;;;;;;5044530;28;20048;-67
2023/05/21 14:22:33;;;;;;;7.88;3.88;;;;;;;;;;5048624;28;20040;-67
2023/05/21 14:24:58;;;;;;;7.27;3.90;;;;;;;;;;5032363;28;20116;-68
2023/05/21 14:27:23;;;;;;;8.30;3.60;;;;;;;;;;5032024;28;20332;-64
2023/05/21 14:29:49;;;;;;;7.32;3.58;;;;;;;;;;5028808;28;20197;-71
2023/05/21 14:32:15;;;;;;;5.88;3.70;;;;;;;;;;5029427;28;20136;-63
2023/05/21 14:34:41;;;;;;;7.00;3.80;;;;;;;;;;5027085;28;20423;-72
2023/05/21 14:37:06;;;;;;;5.83;3.37;;;;;;;;;;5040017;28;20016;-68